Flight Track Log - Related Links

Times and Time Zones

All times are in EDT time to prevent confusion due to time zone crossing. See the N849WM flight status page for this flight to view local times or setup timezone preferences in your user account.

Time Position Orientation Groundspeed Altitude Reporting Facility
EDT Latitude Longitude Course Direction KTS MPH feet Rate Location/Type
Sat 01:14:33 PM 25.9922 -80.2822 256° West 110 127 1,400  Level Miami Center
Sat 01:15:40 PM 25.9956 -80.3194 276° West 114 131 2,600 1,078 Climbing Miami Center
Sat 01:16:41 PM 26.0031 -80.3542 284° West 112 129 3,700 683 Climbing Miami Center
Sat 01:17:43 PM 26.0231 -80.3872 304° West 141 162 4,000 488 Climbing Miami Center
Sat 01:18:44 PM 26.0453 -80.4225 305° West 142 163 4,700 488 Climbing Miami Center
Sat 01:19:46 PM 26.0806 -80.4353 342° North 156 180 5,000 146 Climbing Miami Center
Sat 01:20:47 PM 26.1286 -80.4367 359° North 163 188 5,000 197 Level Miami Center
Sat 01:21:48 PM 26.1722 -80.4381 358° North 159 183 5,400 639 Climbing Miami Center
Sat 01:22:49 PM 26.2119 -80.4392 359° North 132 152 6,300 787 Climbing Miami Center
Sat 01:23:50 PM 26.2475 -80.4403 358° North 126 145 7,000 341 Climbing Miami Center
Sat 01:24:52 PM 26.2914 -80.4322 North 168 193 7,000 26 Level Miami Center
Sat 01:26:00 PM 26.3439 -80.4458 347° North  Level Estimated
Sat 01:33:00 PM 26.6685 -80.5297 347° North  Level Estimated
Sat 01:34:00 PM 26.7149 -80.5417 347° North  Level Estimated
Sat 01:35:00 PM 26.7612 -80.5537 347° North  Level Estimated
Sat 01:36:00 PM 26.8076 -80.5658 347° North  Level Estimated
Sat 01:37:00 PM 26.8539 -80.5778 347° North  Level Estimated
Sat 01:38:00 PM 26.9003 -80.5899 347° North  Level Estimated
Sat 01:38:58 PM 26.9125 -80.4069 347° North 163 188 7,400  Level Miami Center
Sat 01:39:00 PM 26.9467 -80.6019 347° North  Level Estimated
Sat 01:39:58 PM 26.9542 -80.4106 356° North 152 175 7,800  Level Miami Center
Sat 01:40:00 PM 26.9930 -80.6140 347° North  Level Estimated
Sat 01:40:58 PM 26.9978 -80.4164 353° North 142 163 8,300  Level Miami Center
Sat 01:41:00 PM 27.0394 -80.6261 347° North  Level Estimated
Sat 01:41:58 PM 27.0372 -80.4225 352° North 142 163 8,800  Level Miami Center
Sat 01:42:00 PM 27.0857 -80.6382 347° North  Level Estimated
Sat 01:42:58 PM 27.0747 -80.4258 355° North 142 163 8,900  Level Miami Center
Sat 01:43:00 PM 27.1321 -80.6503 347° North  Level Estimated
Sat 01:43:58 PM 27.1206 -80.4294 356° North 148 170 8,900  Level Miami Center
Sat 01:44:58 PM 27.1706 -80.4358 354° North 159 183 8,900  Level Miami Center
Sat 01:45:58 PM 27.2183 -80.4419 354° North 164 189 8,900  Level Miami Center
Sat 01:46:58 PM 27.2644 -80.4458 356° North 164 189 8,900  Level Miami Center
Sat 01:47:58 PM 27.3103 -80.4494 356° North 164 189 8,900  Level Miami Center
Sat 01:48:58 PM 27.3561 -80.4533 356° North 164 189 8,900  Level Miami Center
Sat 01:49:58 PM 27.4103 -80.4572 356° North 164 189 8,900  Level Miami Center
Sat 01:50:58 PM 27.4581 -80.4611 356° North 169 194 8,900  Level Miami Center
Sat 01:51:58 PM 27.5019 -80.4625 358° North 169 194 8,900  Level Miami Center
Sat 01:52:58 PM 27.5500 -80.4639 359° North 169 194 8,900  Level Miami Center
Sat 01:53:58 PM 27.6019 -80.4681 356° North 169 194 8,900  Level Miami Center
Sat 01:54:58 PM 27.6475 -80.4789 348° North 169 194 8,900  Level Miami Center
Sat 01:55:58 PM 27.6911 -80.4964 340° North 169 194 8,900  Level Miami Center
Sat 01:56:58 PM 27.7303 -80.5094 344° North 163 188 8,900  Level Miami Center
Sat 01:57:58 PM 27.7739 -80.5250 342° North 163 188 8,900  Level Miami Center
Sat 02:00:12 PM 27.8833 -80.5500 349° North 168 193 8,900  Level Orlando TRACON
Sat 02:01:12 PM 27.9333 -80.5667 344° North 172 198 8,900  Level Orlando TRACON
Sat 02:02:17 PM 27.9667 -80.5833 336° Northwest 167 192 8,900  Level Orlando TRACON
Sat 02:03:18 PM 28.0167 -80.6000 344° North 172 198 8,900  Level Orlando TRACON
Sat 02:04:18 PM 28.0667 -80.6167 344° North 171 197 8,900  Level Orlando TRACON
Sat 02:05:18 PM 28.1167 -80.6333 344° North 166 191 8,900  Level Orlando TRACON
Sat 02:06:12 PM 28.1500 -80.6500 336° Northwest 164 189 8,900 53 Level Orlando TRACON
Sat 02:07:12 PM 28.2000 -80.6667 344° North 167 192 9,000  Climbing Orlando TRACON
Sat 02:08:12 PM 28.2333 -80.6833 336° Northwest 163 188 8,900 -48 Descending Orlando TRACON
Sat 02:09:18 PM 28.2833 -80.7000 344° North 164 189 8,900  Level Orlando TRACON
Sat 02:10:13 PM 28.3167 -80.7167 336° Northwest 163 188 8,900  Level Orlando TRACON
Sat 02:11:18 PM 28.3667 -80.7333 344° North 162 186 8,900  Level Orlando TRACON
Sat 02:12:18 PM 28.4167 -80.7500 344° North 162 186 8,900  Level Orlando TRACON
Sat 02:13:18 PM 28.4500 -80.7667 336° Northwest 163 188 8,900 50 Level Orlando TRACON
Sat 02:14:19 PM 28.5000 -80.7833 344° North 164 189 9,000  Climbing Orlando TRACON
Sat 02:15:19 PM 28.5500 -80.8167 330° Northwest 164 189 8,900 -53 Descending Orlando TRACON
Sat 02:16:13 PM 28.5833 -80.8167 360° North 162 186 8,900  Level Orlando TRACON
Sat 02:17:13 PM 28.6333 -80.8333 344° North 163 188 8,900  Level Orlando TRACON
Sat 02:18:13 PM 28.6667 -80.8500 336° Northwest 162 186 8,900  Level Orlando TRACON
Sat 02:20:35 PM 28.7647 -80.9008 336° Northwest 160 184 8,900  Level Jacksonville Center
Sat 02:21:36 PM 28.8047 -80.9167 341° North 162 186 8,900  Level Jacksonville Center
Sat 02:22:36 PM 28.8486 -80.9322 343° North 164 189 8,900  Level Jacksonville Center
Sat 02:23:44 PM 28.8992 -80.9525 341° North 164 189 8,900  Level Jacksonville Center
Sat 02:24:50 PM 28.9453 -80.9731 339° North 163 188 8,900  Level Jacksonville Center
Sat 02:25:51 PM 28.9872 -80.9889 342° North 163 188 8,900  Level Jacksonville Center
Sat 02:26:51 PM 29.0356 -81.0069 342° North 164 189 8,900  Level Jacksonville Center
Sat 02:27:52 PM 29.0775 -81.0250 339° North 165 190 8,900  Level Jacksonville Center
Sat 02:28:52 PM 29.1194 -81.0433 339° North 168 193 8,900  Level Jacksonville Center
Sat 02:29:53 PM 29.1617 -81.0592 342° North 163 188 8,900  Level Jacksonville Center
Sat 02:30:48 PM 29.1953 -81.0753 337° Northwest 123 142 8,900  Level Jacksonville Center
Sat 02:31:48 PM 29.2308 -81.0936 336° Northwest 147 169 8,900  Level Jacksonville Center
Sat 02:32:49 PM 29.2689 -81.1192 330° Northwest 158 182 8,900  Level Jacksonville Center
Sat 02:33:43 PM 29.3067 -81.1328 343° North 164 189 8,900  Level Jacksonville Center
Sat 02:34:44 PM 29.3506 -81.1511 340° North 170 196 8,900  Level Jacksonville Center
Sat 02:35:45 PM 29.3989 -81.1692 342° North 168 193 8,900  Level Jacksonville Center
Sat 02:36:45 PM 29.4450 -81.1850 343° North 169 194 8,900  Level Jacksonville Center
Sat 02:37:34 PM 29.4808 -81.1989 341° North 170 196 8,900 -49 Level Jacksonville Center
Sat 02:38:47 PM 29.5311 -81.2194 340° North 168 193 8,800 -194 Descending Jacksonville Center
Sat 02:39:38 PM 29.5731 -81.2353 342° North 173 199 8,500 -462 Descending Jacksonville Center
Sat 02:40:57 PM 29.6297 -81.2536 344° North 168 193 7,800 -471 Descending Jacksonville Center
Sat 02:41:58 PM 29.6781 -81.2719 342° North 171 197 7,400 -417 Descending Jacksonville Center
Sat 02:42:52 PM 29.7178 -81.2856 343° North 175 201 7,000 -470 Descending Jacksonville Center
Sat 02:43:53 PM 29.7700 -81.2919 354° North 178 205 6,500 -492 Descending Jacksonville Center
Sat 02:44:54 PM 29.8203 -81.2983 354° North 182 209 6,000 -492 Descending Jacksonville Center
Sat 02:45:55 PM 29.8725 -81.3069 352° North 184 212 5,500 -469 Descending Jacksonville Center
Sat 02:47:02 PM 29.9289 -81.3131 355° North 182 209 5,000 -234 Descending Jacksonville Center
Sat 02:48:03 PM 29.9750 -81.3219 351° North 171 197 5,000 -50 Level Jacksonville Center
Sat 02:49:03 PM 30.0231 -81.3283 353° North 164 189 4,900 -446 Descending Jacksonville Center
Sat 02:50:04 PM 30.0733 -81.3347 354° North 180 207 4,100 -828 Descending Jacksonville Center
Sat 02:50:59 PM 30.1214 -81.3414 353° North 187 215 3,300 -828 Descending Jacksonville Center
Sat 02:52:00 PM 30.1736 -81.3500 352° North 188 216 2,500 -609 Descending Jacksonville Center
Sat 02:53:07 PM 30.2200 -81.3806 330° Northwest 187 215 2,000 -248 Descending Jacksonville Center
Sat 02:54:01 PM 30.2475 -81.4114 316° Northwest 144 166 2,000 -157 Level Jacksonville Center
Sat 02:55:02 PM 30.2750 -81.4422 316° Northwest 124 143 1,700 -541 Descending Jacksonville Center
Sat 02:56:03 PM 30.3003 -81.4706 316° Northwest 136 157 900 -492 Descending Jacksonville Center
Sat 02:57:04 PM 30.3072 -81.5139 281° West 127 146 700 -344 Descending Jacksonville Center
Sat 02:58:05 PM 30.3197 -81.5331 307° West 87 100 200 -492 Descending Jacksonville Center
Sat 03:00:00 PM 30.3363 -81.5144 341° North  Level Estimated

Login

Don't have an account? Register now (free) for customized features, flight alerts, and more!